Time;durP1;ratioP1;P1;durP2;ratioP2;P2;SDS_P1;SDS_P2;PMS_P1;PMS_P2;Temp;Humidity;BMP_temperature;BMP_pressure;BME280_temperature;BME280_humidity;BME280_pressure;Samples;Min_cycle;Max_cycle;Signal;HPM_P1;HPM_P2
2022/04/21 00:00:33;;;;;;;1.00;0.30;;;;;;;19.44;42.76;100266.59;4985846;28;20030;-52
2022/04/21 00:02:59;;;;;;;0.75;0.20;;;;;;;19.44;42.84;100263.16;4987365;28;20498;-55
2022/04/21 00:05:25;;;;;;;0.50;0.20;;;;;;;19.44;43.00;100268.44;4985011;28;20360;-54
2022/04/21 00:07:50;;;;;;;1.13;0.20;;;;;;;19.43;42.70;100256.25;4987902;28;20042;-53
2022/04/21 00:10:17;;;;;;;0.55;0.20;;;;;;;19.42;42.76;100254.63;4986928;28;21343;-51
2022/04/21 00:12:42;;;;;;;0.40;0.20;;;;;;;19.41;42.65;100247.72;4988312;28;20486;-53
2022/04/21 00:15:09;;;;;;;0.95;0.20;;;;;;;19.41;42.61;100247.72;4984838;28;20046;-53
2022/04/21 00:17:35;;;;;;;1.17;0.20;;;;;;;19.39;42.62;100250.56;4988374;28;20182;-55
2022/04/21 00:20:00;;;;;;;3.20;0.30;;;;;;;19.39;42.67;100245.28;4985815;28;20513;-56
2022/04/21 00:25:11;;;;;;;1.63;0.30;;;;;;;19.37;42.48;100246.53;4984630;28;20513;-54
2022/04/21 00:27:44;;;;;;;1.02;0.20;;;;;;;19.35;42.75;100238.81;4987677;28;20034;-54
2022/04/21 00:30:11;;;;;;;0.85;0.22;;;;;;;19.37;42.59;100241.25;4985988;28;20544;-54
2022/04/21 00:32:39;;;;;;;2.85;0.35;;;;;;;19.37;42.51;100236.78;4987656;28;20038;-56
2022/04/21 00:35:06;;;;;;;0.50;0.20;;;;;;;19.37;42.56;100244.69;4986590;28;20038;-53
2022/04/21 00:37:32;;;;;;;2.92;0.30;;;;;;;19.36;42.48;100239.63;4988666;28;20026;-55
2022/04/21 00:39:59;;;;;;;0.63;0.20;;;;;;;19.37;42.56;100244.69;4986066;28;20120;-53
2022/04/21 00:42:24;;;;;;;0.68;0.20;;;;;;;19.38;42.39;100237.56;4988224;28;20038;-57
2022/04/21 00:44:50;;;;;;;0.63;0.20;;;;;;;19.36;42.43;100235.16;4985485;28;20126;-54
2022/04/21 00:47:17;;;;;;;0.50;0.30;;;;;;;19.37;42.51;100236.78;4986189;28;20459;-54
2022/04/21 00:49:44;;;;;;;0.65;0.28;;;;;;;19.37;42.32;100231.50;4986946;28;20056;-56
2022/04/21 00:52:09;;;;;;;1.52;0.30;;;;;;;19.36;42.49;100231.69;4985476;28;20030;-50
2022/04/21 00:54:35;;;;;;;0.98;0.20;;;;;;;19.35;42.42;100230.06;4986738;28;20537;-51
2022/04/21 00:57:01;;;;;;;1.20;0.20;;;;;;;19.34;42.31;100231.91;4987037;28;20052;-52
2022/04/21 00:59:27;;;;;;;0.80;0.40;;;;;;;19.34;42.26;100229.25;4986741;28;20145;-54
2022/04/21 01:04:39;;;;;;;1.50;0.30;;;;;;;19.34;42.59;100223.97;4986103;28;20057;-57
2022/04/21 01:07:08;;;;;;;1.30;0.20;;;;;;;19.36;42.42;100216.66;4986451;28;20462;-56
2022/04/21 01:09:35;;;;;;;0.73;0.20;;;;;;;19.35;42.58;100220.31;4986736;28;20140;-54
2022/04/21 01:12:01;;;;;;;0.40;0.20;;;;;;;19.36;42.25;100224.59;4986367;28;20058;-54
2022/04/21 01:14:27;;;;;;;0.65;0.20;;;;;;;19.38;42.28;100221.72;4985874;28;20030;-56
2022/04/21 01:16:52;;;;;;;1.10;0.20;;;;;;;19.38;42.34;100216.41;4986595;28;20493;-54
2022/04/21 01:19:18;;;;;;;1.50;0.30;;;;;;;19.39;42.35;100220.69;4986673;28;20038;-54
2022/04/21 01:21:44;;;;;;;0.73;0.28;;;;;;;19.39;42.24;100210.13;4986454;28;20033;-54
2022/04/21 01:24:09;;;;;;;1.08;0.30;;;;;;;19.39;42.22;100207.47;4987233;28;20073;-55
2022/04/21 01:26:35;;;;;;;0.52;0.20;;;;;;;19.39;42.22;100200.38;4985703;28;20094;-51
2022/04/21 01:29:07;;;;;;;0.73;0.30;;;;;;;19.39;42.02;100200.38;4986701;28;20038;-58
2022/04/21 01:31:33;;;;;;;2.50;0.20;;;;;;;19.38;42.11;100206.66;4986894;28;20044;-54
2022/04/21 01:33:58;;;;;;;1.35;0.30;;;;;;;19.38;42.15;100198.75;4984791;28;20034;-54
2022/04/21 01:36:24;;;;;;;2.05;0.30;;;;;;;19.37;42.26;100202.44;4984337;28;20030;-51
2022/04/21 01:41:34;;;;;;;2.10;0.30;;;;;;;19.36;42.10;100205.28;4987275;28;20049;-49
2022/04/21 01:44:00;;;;;;;0.52;0.20;;;;;;;19.35;42.10;100195.72;4986766;28;20038;-52
2022/04/21 01:46:25;;;;;;;0.68;0.20;;;;;;;19.35;42.14;100201.84;4985831;28;20029;-56
2022/04/21 01:48:51;;;;;;;0.82;0.40;;;;;;;19.35;42.00;100201.84;4985555;28;20462;-54
2022/04/21 01:51:16;;;;;;;1.48;0.30;;;;;;;19.34;42.00;100200.22;4985056;28;20034;-55
2022/04/21 01:53:42;;;;;;;0.68;0.22;;;;;;;19.34;42.06;100200.22;4986404;28;20026;-57
2022/04/21 01:56:08;;;;;;;0.55;0.20;;;;;;;19.33;42.13;100198.59;4985376;28;20536;-53
2022/04/21 01:58:33;;;;;;;1.25;0.20;;;;;;;19.32;42.15;100199.59;4986535;28;20196;-54
2022/04/21 02:00:59;;;;;;;0.45;0.20;;;;;;;19.32;42.06;100196.97;4985302;28;20815;-55
2022/04/21 02:03:24;;;;;;;1.20;0.20;;;;;;;19.31;42.10;100195.34;4986496;28;20031;-50
2022/04/21 02:05:50;;;;;;;0.40;0.20;;;;;;;19.30;42.09;100199.00;4984823;28;20129;-54
2022/04/21 02:08:15;;;;;;;0.90;0.20;;;;;;;19.29;42.04;100202.66;4986243;28;20081;-48
2022/04/21 02:13:16;;;;;;;1.55;0.20;;;;;;;19.27;42.17;100188.03;5028337;23;20161;-52
2022/04/21 02:15:41;;;;;;;0.50;0.30;;;;;;;19.26;42.08;100192.50;4987160;28;20030;-52
2022/04/21 02:18:07;;;;;;;1.08;0.30;;;;;;;19.27;42.17;100194.13;4986891;28;20026;-55
2022/04/21 02:20:32;;;;;;;0.88;0.30;;;;;;;19.26;42.06;100181.13;4987062;28;20404;-55
2022/04/21 02:22:58;;;;;;;0.98;0.20;;;;;;;19.25;42.18;100192.72;4987251;28;20027;-58
2022/04/21 02:25:23;;;;;;;0.93;0.20;;;;;;;19.25;42.09;100188.25;4987266;28;20085;-52
2022/04/21 02:27:50;;;;;;;0.65;0.15;;;;;;;19.24;42.02;100186.63;4986936;28;20029;-53
2022/04/21 02:30:17;;;;;;;0.60;0.20;;;;;;;19.24;42.11;100178.69;4990550;28;20030;-57
2022/04/21 02:32:43;;;;;;;1.20;0.20;;;;;;;19.25;41.97;100179.50;4990993;28;20092;-56
2022/04/21 02:35:09;;;;;;;0.52;0.20;;;;;;;19.23;42.08;100182.34;4990558;28;20027;-53
2022/04/21 02:37:39;;;;;;;0.60;0.20;;;;;;;19.22;42.09;100183.38;4990751;28;20030;-52
2022/04/21 02:40:06;;;;;;;0.55;0.20;;;;;;;19.22;42.01;100175.44;4990790;28;20022;-56
2022/04/21 02:42:32;;;;;;;0.50;0.20;;;;;;;19.22;42.06;100172.81;4990530;28;20126;-54
2022/04/21 02:44:58;;;;;;;0.40;0.20;;;;;;;19.23;42.02;100171.78;4990572;28;20050;-53
2022/04/21 02:47:23;;;;;;;0.52;0.20;;;;;;;19.23;42.07;100171.78;4990418;28;20052;-57
2022/04/21 02:49:50;;;;;;;0.85;0.20;;;;;;;19.22;42.04;100160.41;4990602;28;20034;-55
2022/04/21 02:52:16;;;;;;;3.03;0.32;;;;;;;19.21;41.93;100163.25;4990596;28;20176;-57
2022/04/21 02:57:26;;;;;;;0.60;0.20;;;;;;;19.21;41.92;100161.44;4990570;28;20046;-55
2022/04/21 02:59:54;;;;;;;0.55;0.20;;;;;;;19.21;41.84;100156.16;4990636;28;20030;-55
2022/04/21 03:02:20;;;;;;;1.27;0.30;;;;;;;19.22;42.00;100159.59;4990306;28;20030;-51
2022/04/21 03:04:46;;;;;;;1.42;0.20;;;;;;;19.21;41.99;100150.06;4990639;28;20030;-51
2022/04/21 03:07:13;;;;;;;0.85;0.30;;;;;;;19.20;41.94;100151.06;4990661;28;20417;-52
2022/04/21 03:09:39;;;;;;;1.33;0.20;;;;;;;19.19;42.02;100149.44;4990463;28;20150;-56
2022/04/21 03:12:06;;;;;;;1.02;0.20;;;;;;;19.21;41.97;100150.06;4989986;28;20517;-55
2022/04/21 03:14:33;;;;;;;0.52;0.20;;;;;;;19.19;41.97;100150.25;4990126;28;20103;-56
2022/04/21 03:16:59;;;;;;;0.60;0.20;;;;;;;19.21;41.96;100147.41;4990140;28;20050;-54
2022/04/21 03:19:25;;;;;;;1.25;0.30;;;;;;;19.21;41.87;100142.13;4990256;28;20474;-54
2022/04/21 03:24:34;;;;;;;0.57;0.20;;;;;;;19.22;41.82;100139.28;4990368;28;20044;-54
2022/04/21 03:27:00;;;;;;;0.80;0.17;;;;;;;19.22;41.82;100134.00;4990442;28;20389;-54
2022/04/21 03:29:25;;;;;;;0.85;0.20;;;;;;;19.24;41.81;100131.16;4990037;28;20026;-56
2022/04/21 03:31:51;;;;;;;1.95;0.30;;;;;;;19.24;41.82;100131.16;4989718;28;20035;-54
2022/04/21 03:34:18;;;;;;;0.55;0.20;;;;;;;19.25;41.88;100134.59;4990039;28;20088;-53
2022/04/21 03:36:48;;;;;;;0.50;0.20;;;;;;;19.25;41.57;100134.59;4990100;28;20112;-53
2022/04/21 03:39:20;;;;;;;0.93;0.30;;;;;;;19.23;41.60;100134.81;4989597;28;20117;-57
2022/04/21 03:41:45;;;;;;;0.40;0.20;;;;;;;19.23;41.65;100127.69;4988934;28;20081;-54
2022/04/21 03:44:11;;;;;;;1.73;0.20;;;;;;;19.23;41.64;100121.59;4989867;28;20381;-50
2022/04/21 03:46:38;;;;;;;0.52;0.20;;;;;;;19.22;41.54;100117.34;4989537;28;20018;-53
2022/04/21 03:49:07;;;;;;;0.45;0.20;;;;;;;19.21;41.53;100126.28;4990109;28;20258;-53
2022/04/21 03:51:33;;;;;;;0.60;0.20;;;;;;;19.21;41.64;100113.09;4989616;28;20257;-54
2022/04/21 03:53:59;;;;;;;1.08;0.20;;;;;;;19.22;41.58;100112.06;4989521;28;20034;-58
2022/04/21 03:56:26;;;;;;;1.05;0.20;;;;;;;19.20;41.57;100109.63;4989380;28;20750;-54
2022/04/21 03:58:52;;;;;;;0.50;0.20;;;;;;;19.21;41.52;100110.44;4989215;28;20109;-56
2022/04/21 04:01:19;;;;;;;0.57;0.20;;;;;;;19.20;41.39;100108.81;4989549;28;20390;-57
2022/04/21 04:03:44;;;;;;;0.30;0.20;;;;;;;19.19;41.49;100102.72;4989349;28;20030;-54
2022/04/21 04:11:38;;;;;;;0.70;0.20;;;;;;;19.15;41.45;100111.28;4988976;28;20167;-54
2022/04/21 04:14:07;;;;;;;0.95;0.20;;;;;;;19.15;41.63;100106.81;4989329;28;20649;-53
2022/04/21 04:16:34;;;;;;;1.42;0.30;;;;;;;19.15;41.64;100111.28;4989237;28;20109;-53
2022/04/21 04:19:00;;;;;;;0.38;0.20;;;;;;;19.13;41.55;100111.47;4989113;28;20033;-53
2022/04/21 04:21:26;;;;;;;0.63;0.20;;;;;;;19.14;41.49;100110.47;4988575;28;20053;-54
2022/04/21 04:23:52;;;;;;;0.45;0.20;;;;;;;19.14;41.56;100107.00;4988905;28;20030;-54
2022/04/21 04:26:17;;;;;;;0.60;0.10;;;;;;;19.12;41.72;100107.22;4984675;28;20031;-45
2022/04/21 04:28:43;;;;;;;0.43;0.20;;;;;;;19.12;41.54;100111.69;4988116;28;20053;-55
2022/04/21 04:31:08;;;;;;;0.65;0.17;;;;;;;19.12;41.62;100114.34;4983377;28;20496;-54
2022/04/21 04:33:34;;;;;;;3.95;0.30;;;;;;;19.10;41.51;100109.25;4986545;28;20026;-52
2022/04/21 04:36:00;;;;;;;0.98;0.30;;;;;;;19.10;41.66;100113.72;4987711;28;20030;-53
2022/04/21 04:38:26;;;;;;;0.75;0.20;;;;;;;19.10;41.58;100113.72;4987292;28;20034;-57
2022/04/21 04:40:51;;;;;;;0.52;0.20;;;;;;;19.09;41.88;100110.28;4987718;28;20042;-55
2022/04/21 04:43:16;;;;;;;0.95;0.20;;;;;;;19.08;41.62;100106.00;4987665;28;20029;-56
2022/04/21 04:46:43;;;;;;;0.82;0.22;;;;;;;19.08;41.58;100107.84;4988806;28;20041;-53
2022/04/21 04:48:36;;;;;;;0.70;0.20;;;;;;;19.06;41.67;100108.06;4981614;28;20038;-58
2022/04/21 04:51:01;;;;;;;0.50;0.20;;;;;;;19.07;41.59;100114.16;4987239;28;20026;-55
2022/04/21 04:53:27;;;;;;;1.23;0.20;;;;;;;19.08;41.66;100110.47;4987441;28;20109;-55
2022/04/21 04:55:52;;;;;;;0.38;0.20;;;;;;;19.07;41.60;100103.59;4987929;28;20030;-56
2022/04/21 04:58:18;;;;;;;1.17;0.30;;;;;;;19.07;41.42;100108.88;4986555;28;20030;-54
2022/04/21 05:00:47;;;;;;;1.20;0.30;;;;;;;19.06;41.71;100109.88;4987309;28;20057;-53
2022/04/21 05:03:12;;;;;;;1.05;0.22;;;;;;;19.07;41.60;100098.31;4985991;28;20030;-54
2022/04/21 05:05:38;;;;;;;0.60;0.20;;;;;;;19.07;41.51;100096.47;4986413;28;20081;-52
2022/04/21 05:08:06;;;;;;;0.95;0.20;;;;;;;19.08;41.59;100087.53;4987917;28;20034;-56
2022/04/21 05:10:31;;;;;;;1.55;0.20;;;;;;;19.07;41.56;100093.03;4985971;28;20145;-54
2022/04/21 05:12:57;;;;;;;0.60;0.20;;;;;;;19.07;41.61;100085.91;4983835;28;20048;-53
2022/04/21 05:15:22;;;;;;;1.77;0.20;;;;;;;19.05;41.57;100090.59;4984804;28;20466;-54
2022/04/21 05:17:48;;;;;;;0.40;0.20;;;;;;;19.05;41.54;100090.59;4986814;28;20383;-54
2022/04/21 05:20:14;;;;;;;0.80;0.20;;;;;;;19.05;41.63;100090.59;4986949;28;20038;-49
2022/04/21 05:22:40;;;;;;;0.40;0.20;;;;;;;19.05;41.59;100085.31;4987672;28;20343;-55
2022/04/21 05:25:09;;;;;;;0.85;0.30;;;;;;;19.06;41.53;100088.75;4983855;28;20037;-57
2022/04/21 05:27:36;;;;;;;0.43;0.10;;;;;;;19.06;41.36;100080.84;4987860;28;20037;-53
2022/04/21 05:32:48;;;;;;;1.17;0.20;;;;;;;19.08;41.44;100094.66;4987811;28;20053;-52
2022/04/21 05:35:16;;;;;;;0.55;0.20;;;;;;;19.09;41.49;100094.44;4986681;28;20066;-55
2022/04/21 05:37:42;;;;;;;0.50;0.30;;;;;;;19.09;41.37;100096.25;4987409;28;20030;-52
2022/04/21 05:40:10;;;;;;;0.50;0.20;;;;;;;19.09;41.36;100099.72;4985506;28;20026;-55
2022/04/21 05:42:41;;;;;;;0.70;0.28;;;;;;;19.11;41.49;100102.16;4985960;28;20047;-54
2022/04/21 05:45:08;;;;;;;0.80;0.30;;;;;;;19.11;41.47;100100.31;4986746;28;20042;-56
2022/04/21 05:47:35;;;;;;;0.60;0.30;;;;;;;19.11;41.29;100100.31;4984998;28;20061;-56
2022/04/21 05:50:01;;;;;;;0.60;0.20;;;;;;;19.12;41.45;100098.50;4983995;28;20464;-51
2022/04/21 05:52:29;;;;;;;0.52;0.25;;;;;;;19.12;41.22;100101.13;4984781;28;20141;-52
2022/04/21 05:54:54;;;;;;;1.85;0.30;;;;;;;19.12;41.28;100098.50;4984550;28;20109;-53
2022/04/21 05:57:20;;;;;;;1.73;0.20;;;;;;;19.11;41.20;100104.78;4986104;28;20774;-58
2022/04/21 05:59:45;;;;;;;2.10;0.30;;;;;;;19.10;41.31;100108.44;4986155;28;20033;-56
2022/04/21 06:02:11;;;;;;;0.50;0.20;;;;;;;19.09;41.41;100107.63;4986329;28;20038;-56
2022/04/21 06:04:38;;;;;;;1.95;0.35;;;;;;;19.10;41.38;100108.44;4987389;28;20455;-56
2022/04/21 06:07:04;;;;;;;0.50;0.25;;;;;;;19.10;41.53;100103.97;4989115;28;20054;-56
2022/04/21 06:09:29;;;;;;;0.80;0.20;;;;;;;19.09;41.34;100107.63;4991359;28;20030;-55
2022/04/21 06:11:55;;;;;;;0.77;0.25;;;;;;;19.09;41.42;100122.66;4990275;28;20054;-52
2022/04/21 06:14:20;;;;;;;0.93;0.30;;;;;;;19.08;41.53;100113.13;5004646;28;20072;-57
2022/04/21 06:16:46;;;;;;;0.60;0.20;;;;;;;19.08;41.55;100118.41;5006242;28;20034;-54
2022/04/21 06:19:11;;;;;;;3.35;0.30;;;;;;;19.06;41.60;100118.63;4990721;28;20033;-54
2022/04/21 06:21:36;;;;;;;1.42;0.20;;;;;;;19.04;41.77;100122.47;4990378;28;20382;-54
2022/04/21 06:24:02;;;;;;;1.67;0.30;;;;;;;19.04;42.34;100131.22;4989512;28;20548;-62
2022/04/21 06:26:27;;;;;;;3.00;0.47;;;;;;;19.08;42.89;100124.50;4989115;28;20026;-53
2022/04/21 06:28:57;;;;;;;6.20;0.40;;;;;;;19.15;44.06;100127.13;4987262;28;22080;-62
2022/04/21 06:31:22;;;;;;;1.20;0.30;;;;;;;19.19;44.26;100125.69;5002202;28;20490;-57
2022/04/21 06:33:48;;;;;;;1.77;0.30;;;;;;;19.19;44.31;100134.41;4988994;28;20030;-49
2022/04/21 06:36:13;;;;;;;3.95;0.60;;;;;;;19.24;45.02;100133.78;4989890;28;20515;-51
2022/04/21 06:38:38;;;;;;;1.00;0.40;;;;;;;19.28;46.23;100124.44;4990421;28;20038;-50
2022/04/21 06:41:04;;;;;;;2.45;0.35;;;;;;;19.26;45.74;100133.59;4990249;28;20490;-52
2022/04/21 06:48:57;;;;;;;1.80;0.22;;;;;;;19.17;44.32;100125.91;4988493;28;20177;-58
2022/04/21 06:51:25;;;;;;;1.00;0.60;;;;;;;19.16;44.27;100131.38;4988563;28;20034;-50
2022/04/21 06:53:51;;;;;;;0.80;0.20;;;;;;;19.15;44.08;100124.47;4987695;28;20563;-53
2022/04/21 06:56:16;;;;;;;1.35;0.20;;;;;;;19.16;43.97;100118.19;4990272;28;20387;-58
2022/04/21 06:58:42;;;;;;;4.53;0.30;;;;;;;19.15;44.13;100121.84;4990087;28;20030;-57
2022/04/21 07:01:07;;;;;;;1.80;0.40;;;;;;;19.15;43.76;100122.66;4988606;28;20031;-57
2022/04/21 07:03:35;;;;;;;4.53;0.50;;;;;;;19.18;44.64;100124.06;4988646;28;20027;-52
2022/04/21 07:06:01;;;;;;;23.95;4.32;;;;;;;19.28;45.43;100127.06;4988680;28;20065;-48
2022/04/21 07:08:26;;;;;;;24.25;4.93;;;;;;;19.35;45.86;100121.78;4988965;28;20026;-47
2022/04/21 07:10:52;;;;;;;25.15;4.32;;;;;;;19.41;47.38;100115.63;4989355;28;20080;-47
2022/04/21 07:13:17;;;;;;;25.15;5.03;;;;;;;19.43;48.56;100119.69;4989994;28;20039;-56
2022/04/21 07:15:43;;;;;;;15.63;2.55;;;;;;;19.48;51.45;100125.16;4988361;28;20489;-50
2022/04/21 07:18:09;;;;;;;29.00;5.57;;;;;;;19.58;51.59;100126.56;4989302;28;20108;-57
2022/04/21 07:20:34;;;;;;;391.92;84.80;;;;;;;19.63;52.76;100118.81;4989573;28;20034;-57
2022/04/21 07:23:00;;;;;;;112.93;27.70;;;;;;;19.66;54.33;100123.66;4984714;28;20386;-54
2022/04/21 07:25:25;;;;;;;304.58;88.38;;;;;;;19.69;55.17;100124.06;4988505;28;20266;-52
2022/04/21 07:27:53;;;;;;;851.03;367.98;;;;;;;19.74;54.91;100124.25;4988915;28;20748;-53
2022/04/21 07:30:19;;;;;;;498.58;157.55;;;;;;;19.80;56.76;100127.88;4989460;28;20038;-49
2022/04/21 07:32:45;;;;;;;327.35;94.95;;;;;;;19.79;54.65;100128.88;4988452;28;20026;-45
2022/04/21 07:35:10;;;;;;;192.02;56.05;;;;;;;19.72;51.31;100128.94;4988345;28;20026;-50
2022/04/21 07:37:37;;;;;;;165.30;45.45;;;;;;;19.65;49.74;100127.34;4989483;28;20049;-45
2022/04/21 07:40:04;;;;;;;134.55;34.03;;;;;;;19.59;48.56;100122.91;4987959;28;20022;-48
2022/04/21 07:42:30;;;;;;;118.47;28.35;;;;;;;19.58;47.66;100121.28;4990885;28;20034;-50
2022/04/21 07:44:58;;;;;;;90.90;25.60;;;;;;;19.53;47.05;100122.72;4982742;28;20030;-47
2022/04/21 07:47:23;;;;;;;94.47;23.10;;;;;;;19.51;46.46;100119.47;4989073;28;20389;-44
2022/04/21 07:49:49;;;;;;;81.28;22.75;;;;;;;19.49;45.81;100124.13;4988158;28;20081;-45
2022/04/21 07:55:10;;;;;;;79.03;22.23;;;;;;;19.48;45.18;100127.78;4988296;28;20100;-45
2022/04/21 07:57:36;;;;;;;64.03;20.10;;;;;;;19.47;44.93;100120.88;4986009;28;20121;-43
2022/04/21 08:00:04;;;;;;;66.00;20.77;;;;;;;19.46;44.76;100123.72;4984249;28;20569;-46
2022/04/21 08:02:30;;;;;;;62.88;19.88;;;;;;;19.46;44.54;100123.72;4985547;28;20496;-45
2022/04/21 08:04:55;;;;;;;59.47;19.40;;;;;;;19.44;44.39;100126.59;4986207;28;20030;-52
2022/04/21 08:07:21;;;;;;;57.30;18.20;;;;;;;19.43;44.42;100127.59;4986046;28;20030;-44
2022/04/21 08:09:46;;;;;;;54.65;16.38;;;;;;;19.41;43.96;100121.72;4985326;28;20370;-44
2022/04/21 08:12:12;;;;;;;60.75;15.80;;;;;;;19.39;43.82;100128.22;4984923;28;20506;-43
2022/04/21 08:14:37;;;;;;;44.72;14.20;;;;;;;19.38;43.76;100127.41;4986230;28;20482;-46
2022/04/21 08:17:03;;;;;;;46.35;14.38;;;;;;;19.39;43.84;100123.75;4987481;28;20501;-43
2022/04/21 08:19:29;;;;;;;38.83;11.27;;;;;;;19.37;43.77;100120.53;4986119;28;20030;-40
2022/04/21 08:21:54;;;;;;;54.40;12.32;;;;;;;19.35;44.00;100117.31;4987102;28;20112;-44
2022/04/21 08:32:41;;;;;;;11.30;3.85;;;;;;;19.25;41.34;100103.72;4988690;28;20485;-58
2022/04/21 08:35:07;;;;;;;17.50;4.00;;;;;;;19.21;41.11;100105.97;4987767;28;20026;-46
2022/04/21 08:37:35;;;;;;;10.48;3.33;;;;;;;19.22;40.98;100107.59;4988182;28;20038;-48
2022/04/21 08:40:04;;;;;;;16.60;2.95;;;;;;;19.22;41.18;100101.50;4988316;28;20033;-43
2022/04/21 08:42:30;;;;;;;7.97;2.03;;;;;;;19.21;42.35;100105.16;4988403;28;20426;-50
2022/04/21 08:44:59;;;;;;;3.60;0.88;;;;;;;19.16;41.72;100107.63;4988653;28;20030;-56
2022/04/21 08:47:28;;;;;;;4.38;0.73;;;;;;;18.99;40.96;100107.25;4969934;28;20121;-52
2022/04/21 08:50:01;;;;;;;9.32;0.80;;;;;;;18.93;40.74;100102.81;4969983;28;20053;-51
2022/04/21 08:52:28;;;;;;;2.20;0.57;;;;;;;18.96;40.66;100093.66;4983187;28;20121;-63
2022/04/21 08:54:55;;;;;;;5.80;0.73;;;;;;;18.99;40.44;100095.88;4989206;28;20439;-62
2022/04/21 08:57:21;;;;;;;3.40;0.60;;;;;;;18.98;40.15;100083.72;4987977;28;20070;-62
2022/04/21 08:59:47;;;;;;;2.67;0.40;;;;;;;18.96;39.50;100085.75;4986069;28;20026;-62
2022/04/21 09:02:12;;;;;;;5.68;0.60;;;;;;;18.92;39.01;100087.16;4986105;28;20508;-62
2022/04/21 09:04:37;;;;;;;3.45;0.82;;;;;;;18.92;38.95;100095.91;4985779;28;20129;-65
2022/04/21 09:07:21;;;;;;;4.13;0.40;;;;;;;18.92;38.82;100098.53;4987237;28;20121;-65
2022/04/21 09:10:14;;;;;;;2.95;0.57;;;;;;;18.92;38.72;100100.38;4986356;28;20124;-60
2022/04/21 09:12:47;;;;;;;4.05;0.55;;;;;;;18.94;38.78;100099.16;4979749;28;20046;-61
2022/04/21 09:15:15;;;;;;;5.15;0.75;;;;;;;18.96;39.16;100091.84;4986249;28;20058;-58
2022/04/21 09:17:48;;;;;;;6.65;0.50;;;;;;;18.97;39.21;100104.00;4987332;28;20105;-59
2022/04/21 09:20:16;;;;;;;3.97;0.60;;;;;;;18.99;39.45;100101.97;4987633;28;20411;-63
2022/04/21 09:22:56;;;;;;;4.93;0.75;;;;;;;19.01;39.58;100112.34;4988072;28;20093;-61
2022/04/21 09:25:29;;;;;;;3.80;0.60;;;;;;;19.02;39.53;100111.31;4988058;28;20035;-62
2022/04/21 09:27:56;;;;;;;2.20;0.50;;;;;;;19.03;39.85;100107.66;4972982;28;20046;-61
2022/04/21 09:30:23;;;;;;;3.05;0.40;;;;;;;19.03;39.68;100112.94;4968708;28;20466;-61
2022/04/21 09:32:59;;;;;;;2.83;0.60;;;;;;;19.02;40.02;100106.03;4984320;28;20046;-58
2022/04/21 09:35:26;;;;;;;1.08;0.43;;;;;;;19.02;40.14;100114.75;4988035;28;20060;-63
2022/04/21 09:37:54;;;;;;;3.22;0.40;;;;;;;19.03;40.24;100111.09;4987836;28;20101;-60
2022/04/21 09:40:23;;;;;;;2.58;0.60;;;;;;;19.02;40.52;100106.03;4987447;28;20100;-53
2022/04/21 09:42:53;;;;;;;2.17;0.40;;;;;;;19.01;40.40;100107.06;4987808;28;20125;-56
2022/04/21 09:48:29;;;;;;;3.45;0.50;;;;;;;19.02;40.41;100103.41;4988599;28;20126;-52
2022/04/21 09:51:15;;;;;;;3.58;0.63;;;;;;;19.02;40.53;100112.13;4987165;28;20517;-54
2022/04/21 09:53:46;;;;;;;;;;;;;;;18.97;40.36;100116.41;4986451;28;20042;-57
2022/04/21 09:56:12;;;;;;;2.33;0.75;;;;;;;19.00;40.71;100113.34;4987325;28;19963;-55
2022/04/21 09:58:39;;;;;;;1.65;0.50;;;;;;;19.04;40.66;100109.28;4987411;28;20030;-53
2022/04/21 10:01:05;;;;;;;5.03;0.60;;;;;;;19.07;40.90;100114.16;4987116;28;20026;-55
2022/04/21 10:03:34;;;;;;;3.88;0.60;;;;;;;19.07;40.84;100112.31;4987386;28;20034;-56
2022/04/21 10:06:01;;;;;;;2.58;0.52;;;;;;;19.09;40.68;100109.47;4987137;28;20030;-58
2022/04/21 10:08:29;;;;;;;2.08;0.55;;;;;;;19.09;40.67;100112.09;4987291;28;20414;-54
2022/04/21 10:10:55;;;;;;;2.03;0.50;;;;;;;19.10;40.67;100108.44;4986638;28;20484;-50
2022/04/21 10:13:21;;;;;;;1.77;0.40;;;;;;;19.10;40.66;100113.72;4967807;28;20047;-53
2022/04/21 10:15:47;;;;;;;4.50;0.60;;;;;;;19.11;40.54;100110.88;4967915;28;20063;-53
2022/04/21 10:18:15;;;;;;;29.30;4.28;;;;;;;19.14;45.59;100104.38;4974622;28;20631;-54
2022/04/21 10:20:41;;;;;;;13.90;1.75;;;;;;;19.21;49.05;100115.72;4987332;28;20037;-53
2022/04/21 10:23:11;;;;;;;11.13;1.50;;;;;;;19.24;50.45;100120.59;4987087;28;20030;-59
2022/04/21 10:25:38;;;;;;;7.45;0.90;;;;;;;19.23;50.13;100124.25;5000690;28;20087;-56
2022/04/21 10:28:39;;;;;;;6.57;1.20;;;;;;;19.19;49.17;100121.22;4992959;28;20088;-50
2022/04/21 10:31:29;;;;;;;1.60;0.47;;;;;;;19.16;48.66;100112.91;4986846;28;20044;-53
2022/04/21 10:33:57;;;;;;;2.55;0.47;;;;;;;19.16;47.83;100115.53;4986845;28;20104;-57
2022/04/21 10:36:46;;;;;;;2.60;0.70;;;;;;;19.14;47.67;100107.00;4986472;28;20032;-53
2022/04/21 10:39:18;;;;;;;2.22;0.85;;;;;;;19.12;47.12;100114.34;4987049;28;20588;-57
2022/04/21 10:41:44;;;;;;;2.38;0.80;;;;;;;19.13;46.60;100110.66;4986818;28;20038;-57
2022/04/21 10:44:14;;;;;;;1.40;0.47;;;;;;;19.12;46.36;100109.88;4986685;28;20076;-58
2022/04/21 10:46:40;;;;;;;2.78;0.40;;;;;;;19.12;46.21;100103.78;4986455;28;20054;-58
2022/04/21 10:49:05;;;;;;;4.45;0.88;;;;;;;19.10;46.03;100105.81;4986813;28;20062;-56
2022/04/21 10:57:32;;;;;;;1.15;0.30;;;;;;;19.04;45.47;100104.00;4990710;28;20504;-57
2022/04/21 11:00:03;;;;;;;2.90;0.40;;;;;;;19.04;45.37;100107.44;4990877;28;20033;-54
2022/04/21 11:02:44;;;;;;;2.42;0.40;;;;;;;19.02;45.18;100100.75;4990195;28;20042;-56
2022/04/21 11:05:22;;;;;;;3.22;0.50;;;;;;;19.01;45.00;100096.50;4990483;28;20038;-58
2022/04/21 11:07:56;;;;;;;2.95;0.50;;;;;;;19.01;44.92;100094.66;4988865;28;20062;-56
2022/04/21 11:10:37;;;;;;;2.40;0.70;;;;;;;19.00;44.44;100093.03;4989016;28;20041;-58
2022/04/21 11:13:04;;;;;;;1.90;0.40;;;;;;;19.02;44.51;100090.19;4989740;28;20712;-51
2022/04/21 11:15:39;;;;;;;3.42;0.30;;;;;;;19.02;43.61;100084.91;4990130;28;20327;-60
2022/04/21 11:18:09;;;;;;;3.17;0.75;;;;;;;19.01;43.18;100083.28;4987968;28;20026;-57
2022/04/21 11:20:35;;;;;;;4.03;0.32;;;;;;;19.03;42.73;100065.41;4988014;28;20038;-57
2022/04/21 11:23:01;;;;;;;4.05;0.57;;;;;;;19.03;42.32;100070.69;4989150;28;20516;-57
2022/04/21 11:25:31;;;;;;;1.30;0.40;;;;;;;19.04;42.11;100075.75;4990953;28;20054;-53
2022/04/21 11:27:57;;;;;;;3.08;0.47;;;;;;;19.05;41.98;100081.84;4986932;28;20034;-56
2022/04/21 11:30:23;;;;;;;5.32;0.57;;;;;;;19.06;42.22;100083.47;4989394;28;20575;-57
2022/04/21 11:32:52;;;;;;;3.85;0.50;;;;;;;19.10;43.01;100082.84;4986000;28;20406;-50
2022/04/21 11:35:22;;;;;;;2.45;0.68;;;;;;;19.20;44.42;100085.06;4986848;28;20484;-53
2022/04/21 11:37:54;;;;;;;5.85;0.50;;;;;;;19.25;46.50;100079.97;4989802;28;20069;-52
2022/04/21 11:40:27;;;;;;;1.60;0.60;;;;;;;19.27;45.75;100077.91;4990130;28;20112;-50
2022/04/21 11:42:55;;;;;;;4.93;1.20;;;;;;;19.26;45.92;100081.56;4988954;28;20572;-60
2022/04/21 11:45:22;;;;;;;6.10;0.52;;;;;;;19.25;45.57;100073.88;4988396;28;20504;-55
2022/04/21 11:47:48;;;;;;;1.02;0.30;;;;;;;19.23;45.23;100071.44;4987537;28;20034;-61
2022/04/21 11:50:21;;;;;;;2.78;0.30;;;;;;;19.20;44.97;100071.84;4987685;28;20033;-62
2022/04/21 11:52:47;;;;;;;0.77;0.40;;;;;;;19.19;44.80;100070.22;4995648;28;20045;-53
2022/04/21 11:55:16;;;;;;;5.90;0.30;;;;;;;19.18;44.52;100064.13;4996749;28;20113;-59
2022/04/21 11:57:42;;;;;;;1.60;0.20;;;;;;;19.16;44.22;100065.38;4985999;28;20042;-56
2022/04/21 12:00:08;;;;;;;3.53;0.40;;;;;;;19.16;43.92;100073.28;4987274;28;20492;-54
2022/04/21 12:08:11;;;;;;;1.75;0.25;;;;;;;19.14;43.68;100073.50;4985923;28;20129;-52
2022/04/21 12:10:37;;;;;;;5.47;0.30;;;;;;;19.16;43.16;100076.75;4987657;28;20121;-51
2022/04/21 12:13:03;;;;;;;1.10;0.40;;;;;;;19.18;42.97;100076.53;4989011;28;20129;-58
2022/04/21 12:15:32;;;;;;;2.35;0.20;;;;;;;19.17;42.95;100070.44;4986869;28;20488;-57
2022/04/21 12:18:01;;;;;;;2.10;0.30;;;;;;;19.18;42.32;100068.59;4986230;28;20046;-62
2022/04/21 12:20:30;;;;;;;1.67;0.28;;;;;;;19.19;42.44;100059.66;4985455;28;20022;-62